Time;durP1;ratioP1;P1;durP2;ratioP2;P2;SDS_P1;SDS_P2;PMS_P1;PMS_P2;Temp;Humidity;BMP_temperature;BMP_pressure;BME280_temperature;BME280_humidity;BME280_pressure;Samples;Min_cycle;Max_cycle;Signal;HPM_P1;HPM_P2
2023/11/09 00:00:01;;;;;;;;;;;;;;;9.86;100.00;100050.03;5034658;28;19913;-44
2023/11/09 00:02:27;;;;;;;;;;;;;;;9.93;100.00;100057.34;5058652;28;19916;-44
2023/11/09 00:04:52;;;;;;;;;;;;;;;9.92;100.00;100063.72;5050247;28;19916;-45
2023/11/09 00:07:19;;;;;;;;;;;;;;;9.92;100.00;100063.72;5034402;28;20379;-44
2023/11/09 00:09:44;;;;;;;;;;;;;;;9.92;100.00;100055.66;5020135;28;20291;-44
2023/11/09 00:12:10;;;;;;;;;;;;;;;9.93;100.00;100062.72;5054010;28;19920;-43
2023/11/09 00:14:36;;;;;;;;;;;;;;;9.94;100.00;100064.34;5054006;28;19916;-43
2023/11/09 00:17:01;;;;;;;;;;;;;;;9.96;100.00;100059.63;5055286;28;19931;-42
2023/11/09 00:19:26;;;;;;;;;;;;;;;9.97;100.00;100054.03;5054343;28;19995;-42
2023/11/09 00:21:51;;;;;;;;;;;;;;;10.00;100.00;100047.44;5054426;28;20368;-42
2023/11/09 00:24:17;;;;;;;;;;;;;;;9.99;100.00;100051.16;5056928;28;19916;-43
2023/11/09 00:26:45;;;;;;;;;;;;;;;10.01;100.00;100054.50;5056289;28;19912;-44
2023/11/09 00:29:10;;;;;;;;;;;;;;;10.01;100.00;100057.19;5053181;28;19974;-43
2023/11/09 00:31:35;;;;;;;;;;;;;;;10.02;100.00;100048.06;5053918;28;19917;-43
2023/11/09 00:34:03;;;;;;;;;;;;;;;10.02;100.00;100056.97;5053767;28;19912;-43
2023/11/09 00:36:28;;;;;;;;;;;;;;;9.95;100.00;100055.25;5049092;28;19916;-44
2023/11/09 00:38:53;;;;;;;;;;;;;;;9.89;100.00;100054.19;5050663;28;19939;-44
2023/11/09 00:41:18;;;;;;;;;;;;;;;9.84;100.00;100049.41;5046686;28;20294;-44
2023/11/09 00:43:44;;;;;;;;;;;;;;;9.80;100.00;100056.22;5053303;28;19959;-45
2023/11/09 00:46:09;;;;;;;;;;;;;;;9.75;100.00;100050.59;5053452;28;20129;-44
2023/11/09 00:48:34;;;;;;;;;;;;;;;9.76;100.00;100052.25;5038806;28;19917;-46
2023/11/09 00:51:00;;;;;;;;;;;;;;;9.73;100.00;100058.00;5037334;28;19917;-45
2023/11/09 00:53:25;;;;;;;;;;;;;;;9.69;100.00;100059.44;5050001;28;19916;-45
2023/11/09 00:55:50;;;;;;;;;;;;;;;9.65;100.00;100058.16;5051288;28;19913;-44
2023/11/09 00:58:16;;;;;;;;;;;;;;;9.62;100.00;100064.75;5052898;28;19924;-44
2023/11/09 01:00:41;;;;;;;;;;;;;;;9.58;100.00;100066.16;5052207;28;19916;-45
2023/11/09 01:03:06;;;;;;;;;;;;;;;9.57;100.00;100069.06;5053133;28;19913;-46
2023/11/09 01:05:31;;;;;;;;;;;;;;;9.55;100.00;100071.09;5052931;28;19912;-44
2023/11/09 01:07:57;;;;;;;;;;;;;;;9.56;100.00;100065.53;5053159;28;20318;-44
2023/11/09 01:10:22;;;;;;;;;;;;;;;9.56;100.00;100056.66;5042146;28;19931;-44
2023/11/09 01:12:47;;;;;;;;;;;;;;;9.55;100.00;100061.19;5033145;28;19917;-44
2023/11/09 01:15:12;;;;;;;;;;;;;;;9.50;100.00;100057.41;5032716;28;20012;-44
2023/11/09 01:17:38;;;;;;;;;;;;;;;9.49;100.00;100061.13;5032926;28;19956;-43
2023/11/09 01:20:04;;;;;;;;;;;;;;;9.53;100.00;100067.75;5032918;28;19974;-42
2023/11/09 01:22:30;;;;;;;;;;;;;;;9.51;100.00;100059.91;5015643;28;20299;-43
2023/11/09 01:24:55;;;;;;;;;;;;;;;9.48;100.00;100049.56;5036307;28;19917;-42
2023/11/09 01:27:21;;;;;;;;;;;;;;;9.50;100.00;100020.63;5033014;28;19920;-43
2023/11/09 01:29:46;;;;;;;;;;;;;;;9.56;100.00;99997.56;5032473;28;20282;-43
2023/11/09 01:32:11;;;;;;;;;;;;;;;9.59;100.00;99968.44;5032837;28;19924;-44
2023/11/09 01:34:37;;;;;;;;;;;;;;;9.59;100.00;99952.31;5032593;28;19916;-44
2023/11/09 01:37:03;;;;;;;;;;;;;;;9.55;100.00;99958.28;5032763;28;19996;-45
2023/11/09 01:39:28;;;;;;;;;;;;;;;9.50;100.00;99950.78;5032145;28;19909;-44
2023/11/09 01:41:53;;;;;;;;;;;;;;;9.51;100.00;99957.03;5032518;28;19925;-43
2023/11/09 01:44:19;;;;;;;;;;;;;;;9.41;100.00;99963.56;5032240;28;19916;-43
2023/11/09 01:46:45;;;;;;;;;;;;;;;9.37;100.00;99994.53;5051903;28;19920;-43
2023/11/09 01:49:10;;;;;;;;;;;;;;;9.33;100.00;100020.09;5052263;28;19908;-42
2023/11/09 01:51:37;;;;;;;;;;;;;;;9.31;100.00;100038.25;5034516;28;19913;-42
2023/11/09 01:54:02;;;;;;;;;;;;;;;9.31;100.00;100032.88;5034210;28;20027;-42
2023/11/09 01:56:27;;;;;;;;;;;;;;;9.31;100.00;100032.06;5034284;28;19966;-42
2023/11/09 01:58:52;;;;;;;;;;;;;;;9.32;100.00;100031.88;5051971;28;20283;-40
2023/11/09 02:01:18;;;;;;;;;;;;;;;9.33;100.00;100038.91;5051783;28;20374;-41
2023/11/09 02:03:43;;;;;;;;;;;;;;;9.36;100.00;100040.38;5051229;28;19924;-41
2023/11/09 02:06:09;;;;;;;;;;;;;;;9.36;100.00;100045.72;5051997;28;19917;-41
2023/11/09 02:08:34;;;;;;;;;;;;;;;9.33;100.00;100035.38;5051160;28;19999;-39
2023/11/09 02:11:00;;;;;;;;;;;;;;;9.32;100.00;100039.94;5051593;28;19923;-40
2023/11/09 02:13:25;;;;;;;;;;;;;;;9.31;100.00;100043.63;5051823;28;20375;-41
2023/11/09 02:15:51;;;;;;;;;;;;;;;9.30;100.00;100044.66;5038193;28;20425;-40
2023/11/09 02:18:18;;;;;;;;;;;;;;;9.31;100.00;100034.75;5051995;28;20285;-41
2023/11/09 02:20:43;;;;;;;;;;;;;;;9.31;100.00;100035.56;5051714;28;19924;-40
2023/11/09 02:23:08;;;;;;;;;;;;;;;9.34;100.00;100026.28;5051947;28;19913;-38
2023/11/09 02:25:34;;;;;;;;;;;;;;;9.32;100.00;100026.50;5037743;28;19924;-41
2023/11/09 02:28:00;;;;;;;;;;;;;;;9.34;100.00;100018.25;5032869;28;20330;-41
2023/11/09 02:30:25;;;;;;;;;;;;;;;9.34;100.00;100018.25;5031632;28;19924;-38
2023/11/09 02:32:50;;;;;;;;;;;;;;;9.34;100.00;100011.00;5031921;28;19913;-40
2023/11/09 02:35:15;;;;;;;;;;;;;;;9.36;100.00;100016.19;5023155;28;19921;-40
2023/11/09 02:37:41;;;;;;;;;;;;;;;9.35;100.00;100006.50;5051764;28;19912;-40
2023/11/09 02:40:08;;;;;;;;;;;;;;;9.36;100.00;100002.78;5051584;28;19963;-38
2023/11/09 02:42:33;;;;;;;;;;;;;;;9.35;100.00;100001.94;5051524;28;20276;-37
2023/11/09 02:44:58;;;;;;;;;;;;;;;9.35;100.00;100004.63;5043504;28;19928;-40
2023/11/09 02:47:23;;;;;;;;;;;;;;;9.35;100.00;100004.63;5045241;28;19916;-40
2023/11/09 02:49:49;;;;;;;;;;;;;;;9.34;100.00;100016.38;5050969;28;20011;-40
2023/11/09 02:52:14;;;;;;;;;;;;;;;9.33;100.00;100020.09;5051266;28;19955;-39
2023/11/09 02:54:39;;;;;;;;;;;;;;;9.35;100.00;100017.22;5050785;28;19917;-40
2023/11/09 02:57:05;;;;;;;;;;;;;;;9.34;100.00;100024.44;5051427;28;19912;-40
2023/11/09 02:59:30;;;;;;;;;;;;;;;9.30;100.00;100020.50;5033562;28;20004;-39
2023/11/09 03:01:56;;;;;;;;;;;;;;;9.32;100.00;100018.44;5048542;28;19917;-39
2023/11/09 03:04:22;;;;;;;;;;;;;;;9.30;100.00;100015.13;5050764;28;19921;-40
2023/11/09 03:06:47;;;;;;;;;;;;;;;9.30;100.00;100017.81;5051276;28;19923;-41
2023/11/09 03:09:14;;;;;;;;;;;;;;;9.30;100.00;100017.81;5050020;28;20032;-38
2023/11/09 03:11:39;;;;;;;;;;;;;;;9.27;100.00;100026.25;5013382;28;19947;-40
2023/11/09 03:14:05;;;;;;;;;;;;;;;9.26;100.00;100029.13;5042017;28;19952;-40
2023/11/09 03:16:31;;;;;;;;;;;;;;;9.24;100.00;100021.25;5050947;28;19917;-41
2023/11/09 03:18:56;;;;;;;;;;;;;;;9.24;100.00;100021.25;5051919;28;19923;-40
2023/11/09 03:21:22;;;;;;;;;;;;;;;9.24;100.00;100021.25;5054247;28;19924;-41
2023/11/09 03:23:49;;;;;;;;;;;;;;;9.25;100.00;100025.59;5054970;28;19986;-38
2023/11/09 03:26:14;;;;;;;;;;;;;;;9.24;100.00;100015.88;5054611;28;19941;-44
2023/11/09 03:28:39;;;;;;;;;;;;;;;9.28;100.00;100029.75;5054604;28;20363;-45
2023/11/09 03:31:06;;;;;;;;;;;;;;;9.22;100.00;100039.44;5054638;28;19964;-44
2023/11/09 03:33:31;;;;;;;;;;;;;;;9.18;100.00;100041.66;5036912;28;20007;-46
2023/11/09 03:35:56;;;;;;;;;;;;;;;9.15;100.00;100042.03;5054310;28;20070;-45
2023/11/09 03:38:22;;;;;;;;;;;;;;;9.16;100.00;100045.53;5054427;28;19917;-45
2023/11/09 03:40:47;;;;;;;;;;;;;;;9.14;100.00;100045.75;5054049;28;19917;-45
2023/11/09 03:43:12;;;;;;;;;;;;;;;9.14;100.00;100047.63;5049490;28;19913;-45
2023/11/09 03:45:37;;;;;;;;;;;;;;;9.12;100.00;100033.53;5044767;28;19924;-44
2023/11/09 03:48:03;;;;;;;;;;;;;;;9.12;100.00;100041.59;5054430;28;19917;-43
2023/11/09 03:50:28;;;;;;;;;;;;;;;9.13;100.00;100033.34;5053982;28;20031;-43
2023/11/09 03:52:53;;;;;;;;;;;;;;;9.13;100.00;100037.88;5054427;28;19917;-43
2023/11/09 03:55:18;;;;;;;;;;;;;;;9.08;100.00;100037.63;5053956;28;19923;-42
2023/11/09 03:57:44;;;;;;;;;;;;;;;9.10;100.00;100035.59;5049987;28;19924;-42
2023/11/09 04:00:11;;;;;;;;;;;;;;;9.08;100.00;100038.44;5047804;28;20286;-42
2023/11/09 04:02:45;;;;;;;;;;;;;;;9.08;100.00;100038.44;5053644;28;19917;-42
2023/11/09 04:05:11;;;;;;;;;;;;;;;9.07;100.00;100030.59;5052917;28;19951;-43
2023/11/09 04:07:45;;;;;;;;;;;;;;;9.07;100.00;100027.91;5052767;28;19916;-44
2023/11/09 04:10:12;;;;;;;;;;;;;;;9.06;100.00;100036.97;5037701;28;19955;-43
2023/11/09 04:12:37;;;;;;;;;;;;;;;9.04;100.00;100041.72;5053652;28;20003;-44
2023/11/09 04:15:04;;;;;;;;;;;;;;;9.02;100.00;100034.69;5049407;28;19959;-44
2023/11/09 04:17:30;;;;;;;;;;;;;;;9.00;100.00;100043.94;5053953;28;19916;-44
2023/11/09 04:19:55;;;;;;;;;;;;;;;9.01;100.00;100048.31;5053203;28;20454;-42
2023/11/09 04:22:21;;;;;;;;;;;;;;;9.00;100.00;100035.88;5053905;28;19924;-41
2023/11/09 04:24:46;;;;;;;;;;;;;;;9.00;100.00;100047.50;5048949;28;19917;-42
2023/11/09 04:27:12;;;;;;;;;;;;;;;8.99;100.00;100048.50;5033823;28;19972;-41
2023/11/09 04:29:37;;;;;;;;;;;;;;;9.00;100.00;100047.50;5050817;28;19912;-42
2023/11/09 04:32:03;;;;;;;;;;;;;;;9.00;100.00;100063.59;5053852;28;20322;-38
2023/11/09 04:34:28;;;;;;;;;;;;;;;8.94;100.00;100050.91;5053196;28;19909;-44
2023/11/09 04:36:55;;;;;;;;;;;;;;;8.91;100.00;100053.97;5053800;28;19917;-45
2023/11/09 04:39:29;;;;;;;;;;;;;;;8.88;100.00;100042.81;5053708;28;19916;-45
2023/11/09 04:41:58;;;;;;;;;;;;;;;8.88;100.00;100043.63;5053757;28;19915;-45
2023/11/09 04:44:23;;;;;;;;;;;;;;;8.87;100.00;100033.91;5053019;28;19959;-45
2023/11/09 04:46:49;;;;;;;;;;;;;;;8.87;100.00;100033.91;5053756;28;19913;-44
2023/11/09 04:49:14;;;;;;;;;;;;;;;8.88;100.00;100026.72;5053469;28;20338;-43
2023/11/09 04:51:40;;;;;;;;;;;;;;;8.85;100.00;100029.78;5053586;28;19935;-43
2023/11/09 04:54:16;;;;;;;;;;;;;;;8.79;100.00;100028.66;5053049;28;19923;-42
2023/11/09 05:07:25;;;;;;;;;;;;;;;8.72;100.00;100033.16;5033554;28;20279;-41
2023/11/09 05:09:50;;;;;;;;;;;;;;;8.74;100.00;100029.25;5031325;28;19913;-38
2023/11/09 05:12:16;;;;;;;;;;;;;;;8.72;100.00;100025.09;5031709;28;19917;-38
2023/11/09 05:14:41;;;;;;;;;;;;;;;8.70;100.00;100027.13;5032209;28;20012;-41
2023/11/09 05:17:08;;;;;;;;;;;;;;;8.65;100.00;100030.38;5014661;28;19921;-39
2023/11/09 05:19:33;;;;;;;;;;;;;;;8.66;100.00;100028.53;5035007;28;19960;-38
2023/11/09 05:21:58;;;;;;;;;;;;;;;8.65;100.00;100037.59;5031699;28;19917;-41
2023/11/09 05:24:26;;;;;;;;;;;;;;;8.60;100.00;100048.88;5031200;28;19916;-41
2023/11/09 05:26:51;;;;;;;;;;;;;;;8.62;100.00;100059.44;5051173;28;20303;-41
2023/11/09 05:29:17;;;;;;;;;;;;;;;8.60;100.00;100054.25;5050390;28;19971;-39
2023/11/09 05:31:44;;;;;;;;;;;;;;;8.59;100.00;100055.28;5050221;28;20373;-40
2023/11/09 05:34:10;;;;;;;;;;;;;;;8.59;100.00;100059.81;5049760;28;19916;-39
2023/11/09 05:36:35;;;;;;;;;;;;;;;8.59;100.00;100059.81;5050289;28;19924;-41
2023/11/09 05:39:00;;;;;;;;;;;;;;;8.53;100.00;100056.88;5061044;28;19924;-41
2023/11/09 05:41:26;;;;;;;;;;;;;;;8.51;100.00;100047.34;5069774;28;19919;-40
2023/11/09 05:43:51;;;;;;;;;;;;;;;8.52;100.00;100052.50;5068538;28;19923;-40
2023/11/09 05:46:19;;;;;;;;;;;;;;;8.53;100.00;100051.50;5056795;28;20414;-40
2023/11/09 05:48:44;;;;;;;;;;;;;;;8.51;100.00;100058.91;5045834;28;19913;-39
2023/11/09 05:51:09;;;;;;;;;;;;;;;8.49;100.00;100055.56;5047714;28;19916;-41
2023/11/09 05:53:35;;;;;;;;;;;;;;;8.46;100.00;100055.94;5052842;28;19921;-40
2023/11/09 05:56:00;;;;;;;;;;;;;;;8.42;100.00;100048.47;5049774;28;19921;-41
2023/11/09 05:58:25;;;;;;;;;;;;;;;8.35;100.00;100054.53;5049880;28;19917;-41
2023/11/09 06:00:52;;;;;;;;;;;;;;;8.33;100.00;100055.75;5052671;28;20466;-42
2023/11/09 06:03:17;;;;;;;;;;;;;;;8.31;100.00;100055.09;5049863;28;20395;-40
2023/11/09 06:05:42;;;;;;;;;;;;;;;8.25;100.00;100055.84;5051957;28;19974;-40
2023/11/09 06:08:10;;;;;;;;;;;;;;;8.20;100.00;100059.09;5046229;28;20287;-40
2023/11/09 06:10:36;;;;;;;;;;;;;;;8.14;100.00;100066.03;5044981;28;20379;-40
2023/11/09 06:13:01;;;;;;;;;;;;;;;8.10;100.00;100059.34;5049753;28;19963;-40
2023/11/09 06:15:26;;;;;;;;;;;;;;;8.06;100.00;100067.97;5048644;28;19925;-39
2023/11/09 06:17:52;;;;;;;;;;;;;;;7.98;100.00;100068.88;5052499;28;20013;-40
2023/11/09 06:20:17;;;;;;;;;;;;;;;7.94;100.00;100064.91;5041197;28;20055;-40
2023/11/09 06:22:45;;;;;;;;;;;;;;;7.90;100.00;100060.94;5038992;28;20355;-40
2023/11/09 06:25:11;;;;;;;;;;;;;;;7.87;100.00;100059.47;5049997;28;19923;-40
2023/11/09 06:27:37;;;;;;;;;;;;;;;7.81;100.00;100054.81;5051932;28;19935;-40
2023/11/09 06:30:04;;;;;;;;;;;;;;;7.77;100.00;100055.38;5042134;28;20436;-40
2023/11/09 06:32:30;;;;;;;;;;;;;;;7.73;100.00;100054.06;5049527;28;20000;-40
2023/11/09 06:34:55;;;;;;;;;;;;;;;7.68;100.00;100052.75;5039857;28;19971;-40
2023/11/09 06:37:20;;;;;;;;;;;;;;;7.59;100.00;100059.22;5046798;28;19921;-38
2023/11/09 06:39:49;;;;;;;;;;;;;;;7.55;100.00;100062.44;5039957;28;19970;-37
2023/11/09 06:42:15;;;;;;;;;;;;;;;7.53;100.00;100056.44;5039240;28;20016;-39
2023/11/09 06:44:41;;;;;;;;;;;;;;;7.50;100.00;100054.13;5046186;28;19944;-41
2023/11/09 06:47:06;;;;;;;;;;;;;;;7.52;100.00;100060.97;5051439;28;20363;-38
2023/11/09 06:49:32;;;;;;;;;;;;;;;7.57;100.00;100065.78;5051461;28;20440;-38
2023/11/09 06:51:57;;;;;;;;;;;;;;;7.61;100.00;100073.28;5050633;28;20371;-41
2023/11/09 06:54:22;;;;;;;;;;;;;;;7.61;100.00;100061.72;5046591;28;19917;-38
2023/11/09 06:56:48;;;;;;;;;;;;;;;7.61;100.00;100067.91;5036394;28;20413;-39
2023/11/09 06:59:13;;;;;;;;;;;;;;;7.58;100.00;100065.59;5054465;28;19974;-41
2023/11/09 07:01:39;;;;;;;;;;;;;;;7.56;100.00;100070.31;5044897;28;19923;-41
2023/11/09 07:04:04;;;;;;;;;;;;;;;7.54;100.00;100071.50;5054587;28;20015;-41
2023/11/09 07:06:29;;;;;;;;;;;;;;;7.58;100.00;100073.66;5054436;28;19952;-41
2023/11/09 07:08:54;;;;;;;;;;;;;;;7.58;100.00;100073.66;5054276;28;20290;-41
2023/11/09 07:11:19;;;;;;;;;;;;;;;7.59;100.00;100075.28;5051188;28;19925;-41
2023/11/09 07:13:45;;;;;;;;;;;;;;;7.62;100.00;100079.47;5054417;28;19973;-38
2023/11/09 07:16:10;;;;;;;;;;;;;;;7.66;100.00;100086.09;5054060;28;19924;-38
2023/11/09 07:18:36;;;;;;;;;;;;;;;7.68;100.00;100079.53;5041714;28;20392;-42
2023/11/09 07:21:02;;;;;;;;;;;;;;;7.75;100.00;100078.84;5044208;28;20385;-39
2023/11/09 07:23:28;;;;;;;;;;;;;;;7.80;100.00;100076.44;5041514;28;20039;-39
2023/11/09 07:25:54;;;;;;;;;;;;;;;7.86;100.00;100075.69;5054279;28;20359;-40
2023/11/09 07:28:20;;;;;;;;;;;;;;;7.88;100.00;100074.50;5052721;28;19928;-39
2023/11/09 07:30:48;;;;;;;;;;;;;;;7.88;100.00;100071.81;5052965;28;19927;-41
2023/11/09 07:33:14;;;;;;;;;;;;;;;7.95;100.00;100076.44;5053852;28;19917;-40
2023/11/09 07:35:39;;;;;;;;;;;;;;;8.04;100.00;100070.00;5035794;28;19913;-40
2023/11/09 07:38:04;;;;;;;;;;;;;;;8.11;100.00;100074.44;5054396;28;19967;-38
2023/11/09 07:40:30;;;;;;;;;;;;;;;8.19;100.00;100073.50;5054010;28;20003;-40
2023/11/09 07:42:57;;;;;;;;;;;;;;;8.35;100.00;100067.13;5053081;28;20016;-40
2023/11/09 07:45:22;;;;;;;;;;;;;;;8.50;100.00;100070.63;5052314;28;20306;-41
2023/11/09 07:47:47;;;;;;;;;;;;;;;8.77;100.00;100068.28;5054327;28;19917;-40
2023/11/09 07:50:16;;;;;;;;;;;;;;;9.15;100.00;100065.38;5054737;28;20009;-40
2023/11/09 07:52:41;;;;;;;;;;;;;;;9.54;100.00;100056.00;5053528;28;19964;-38
2023/11/09 07:55:07;;;;;;;;;;;;;;;9.76;100.00;100049.56;5054152;28;20327;-38
2023/11/09 07:57:34;;;;;;;;;;;;;;;9.80;100.00;100036.56;5053863;28;19920;-41
2023/11/09 07:59:59;;;;;;;;;;;;;;;9.86;100.00;100025.03;5054143;28;20314;-40
2023/11/09 08:02:26;;;;;;;;;;;;;;;9.81;100.00;100009.47;5054499;28;19970;-41
2023/11/09 08:04:54;;;;;;;;;;;;;;;9.88;100.00;100005.00;5046065;28;19943;-40
2023/11/09 08:07:21;;;;;;;;;;;;;;;9.92;100.00;100007.28;5050291;28;19917;-38
2023/11/09 08:09:46;;;;;;;;;;;;;;;9.66;100.00;100009.63;5053782;28;19951;-40
2023/11/09 08:12:11;;;;;;;;;;;;;;;9.72;100.00;100008.00;5053308;28;19964;-40
2023/11/09 08:14:38;;;;;;;;;;;;;;;9.71;100.00;100011.69;5054167;28;19920;-41
2023/11/09 08:17:03;;;;;;;;;;;;;;;10.19;100.00;100010.91;5053711;28;19924;-40
2023/11/09 08:19:28;;;;;;;;;;;;;;;10.55;100.00;100008.81;5052849;28;20294;-40
2023/11/09 08:21:53;;;;;;;;;;;;;;;10.44;100.00;100011.28;5053461;28;19926;-38
2023/11/09 08:24:19;;;;;;;;;;;;;;;10.39;100.00;100016.44;5052975;28;19982;-39
2023/11/09 08:26:45;;;;;;;;;;;;;;;10.23;100.00;100007.63;5053408;28;20371;-41
2023/11/09 08:29:11;;;;;;;;;;;;;;;10.30;100.00;100011.22;5052290;28;19917;-37
2023/11/09 08:31:38;;;;;;;;;;;;;;;10.25;100.00;100007.44;5052558;28;20389;-38
2023/11/09 08:34:03;;;;;;;;;;;;;;;10.44;100.00;100011.28;5053198;28;19917;-41
2023/11/09 08:36:29;;;;;;;;;;;;;;;10.71;100.00;100002.25;5052101;28;19996;-41
2023/11/09 08:38:55;;;;;;;;;;;;;;;11.04;100.00;100001.50;5052825;28;20378;-42
2023/11/09 08:41:21;;;;;;;;;;;;;;;11.10;100.00;100000.66;5053210;28;19912;-40
2023/11/09 08:43:48;;;;;;;;;;;;;;;11.00;100.00;99989.47;5053130;28;20306;-38
2023/11/09 08:46:13;;;;;;;;;;;;;;;10.84;100.00;99995.25;5053455;28;19995;-41
2023/11/09 08:48:40;;;;;;;;;;;;;;;10.74;100.00;99990.25;5053223;28;20360;-39
2023/11/09 08:51:10;;;;;;;;;;;;;;;10.65;100.00;99989.59;5027695;28;19920;-39
2023/11/09 08:53:36;;;;;;;;;;;;;;;10.57;100.00;99987.09;5045232;28;19917;-41
2023/11/09 08:56:01;;;;;;;;;;;;;;;10.31;100.00;99996.75;5051552;28;19923;-41
2023/11/09 08:58:27;;;;;;;;;;;;;;;10.27;100.00;100000.88;5052525;28;20019;-38
2023/11/09 09:00:53;;;;;;;;;;;;;;;10.35;100.00;99993.63;5053006;28;19923;-40
2023/11/09 09:03:19;;;;;;;;;;;;;;;10.29;100.00;99997.97;5051985;28;19917;-39
2023/11/09 09:05:44;;;;;;;;;;;;;;;10.29;100.00;99992.59;5053149;28;19920;-40
2023/11/09 09:08:09;;;;;;;;;;;;;;;10.30;100.00;99999.66;5052755;28;19912;-40
2023/11/09 09:10:37;;;;;;;;;;;;;;;10.35;100.00;99996.34;5035349;28;19923;-40
2023/11/09 09:13:02;;;;;;;;;;;;;;;10.34;100.00;99995.50;5052731;28;20007;-38
2023/11/09 09:15:29;;;;;;;;;;;;;;;10.35;100.00;99991.81;5052075;28;20347;-40
2023/11/09 09:17:55;;;;;;;;;;;;;;;10.53;100.00;99988.53;5051324;28;19917;-40
2023/11/09 09:20:21;;;;;;;;;;;;;;;10.79;100.00;99992.31;5052670;28;19977;-40
2023/11/09 09:22:51;;;;;;;;;;;;;;;10.85;100.00;99980.72;5052151;28;19917;-38
2023/11/09 09:25:16;;;;;;;;;;;;;;;10.76;100.00;99977.41;5052408;28;19984;-40
2023/11/09 09:27:46;;;;;;;;;;;;;;;10.95;100.00;99973.94;5052303;28;19928;-41
2023/11/09 09:30:13;;;;;;;;;;;;;;;10.81;100.00;99969.56;5051506;28;19927;-41
2023/11/09 09:32:39;;;;;;;;;;;;;;;10.85;100.00;99961.88;5052211;28;19913;-41
2023/11/09 09:35:06;;;;;;;;;;;;;;;10.75;100.00;99965.81;5052560;28;19966;-39
2023/11/09 09:37:32;;;;;;;;;;;;;;;10.49;100.00;99971.16;5051589;28;19917;-42
2023/11/09 09:39:57;;;;;;;;;;;;;;;10.62;100.00;99968.50;5052648;28;20370;-40
2023/11/09 09:42:24;;;;;;;;;;;;;;;10.41;100.00;99977.53;5033761;28;19916;-39
2023/11/09 09:44:50;;;;;;;;;;;;;;;10.43;100.00;99977.34;5052469;28;19917;-39
2023/11/09 09:47:15;;;;;;;;;;;;;;;10.49;100.00;99981.91;5034486;28;20053;-40
2023/11/09 09:49:41;;;;;;;;;;;;;;;10.46;100.00;99996.59;5052036;28;19913;-40
2023/11/09 09:52:07;;;;;;;;;;;;;;;10.35;100.00;99999.03;5034080;28;19927;-40
2023/11/09 09:54:32;;;;;;;;;;;;;;;10.22;100.00;99995.25;5051279;28;20343;-43
2023/11/09 09:56:59;;;;;;;;;;;;;;;10.14;100.00;99990.03;5036918;28;20575;-40
2023/11/09 09:59:25;;;;;;;;;;;;;;;10.27;100.00;99994.66;5055858;28;20347;-40
2023/11/09 10:01:51;;;;;;;;;;;;;;;10.43;100.00;99993.50;5037979;28;19943;-39
2023/11/09 10:04:16;;;;;;;;;;;;;;;10.25;100.00;99994.00;5035671;28;20366;-41
2023/11/09 10:06:41;;;;;;;;;;;;;;;10.19;100.00;99986.72;5034327;28;19935;-41
2023/11/09 10:09:07;;;;;;;;;;;;;;;10.11;100.00;99985.06;5044066;28;19971;-41
2023/11/09 10:11:34;;;;;;;;;;;;;;;10.18;100.00;99977.81;5044195;28;19971;-42
2023/11/09 10:14:01;;;;;;;;;;;;;;;10.10;100.00;99983.38;5038393;28;19917;-41
2023/11/09 10:16:30;;;;;;;;;;;;;;;10.17;100.00;99978.03;5048245;28;20007;-41
2023/11/09 10:18:56;;;;;;;;;;;;;;;10.22;100.00;99984.47;5044444;28;20311;-41
2023/11/09 10:21:21;;;;;;;;;;;;;;;10.38;100.00;99985.19;5030193;28;20389;-39
2023/11/09 10:23:53;;;;;;;;;;;;;;;10.32;100.00;99987.66;5048040;28;20003;-40
2023/11/09 10:26:19;;;;;;;;;;;;;;;10.36;100.00;99976.50;5051808;28;19959;-40
2023/11/09 10:28:45;;;;;;;;;;;;;;;10.28;100.00;99990.94;5052697;28;20398;-40
2023/11/09 10:31:23;;;;;;;;;;;;;;;10.12;100.00;99984.03;5023821;28;19991;-40
2023/11/09 10:33:52;;;;;;;;;;;;;;;10.26;100.00;99982.22;5035202;28;19989;-42
2023/11/09 10:36:18;;;;;;;;;;;;;;;10.24;100.00;99970.81;5035794;28;19999;-41
2023/11/09 10:38:46;;;;;;;;;;;;;;;10.20;100.00;99978.47;5050875;28;20012;-41
2023/11/09 10:41:11;;;;;;;;;;;;;;;10.16;100.00;99974.50;5054372;28;19917;-41
2023/11/09 10:43:38;;;;;;;;;;;;;;;10.04;100.00;99962.69;5055601;28;19935;-42
2023/11/09 10:46:07;;;;;;;;;;;;;;;10.15;100.00;99956.72;5054590;28;19920;-41
2023/11/09 10:48:34;;;;;;;;;;;;;;;10.26;100.00;99955.31;5037477;28;20360;-41
2023/11/09 10:51:03;;;;;;;;;;;;;;;10.31;100.00;99948.31;5054566;28;19916;-41
2023/11/09 10:53:28;;;;;;;;;;;;;;;10.35;100.00;99943.38;5032306;28;19917;-42
2023/11/09 10:55:53;;;;;;;;;;;;;;;10.19;100.00;99932.94;5050816;28;19927;-41
2023/11/09 10:58:22;;;;;;;;;;;;;;;10.23;100.00;99935.03;5047423;28;19924;-41
2023/11/09 11:00:50;;;;;;;;;;;;;;;10.17;100.00;99925.09;5027285;28;20032;-42
2023/11/09 11:03:19;;;;;;;;;;;;;;;10.15;100.00;99924.47;5041511;28;19917;-41
2023/11/09 11:05:46;;;;;;;;;;;;;;;10.18;100.00;99924.06;5053197;28;19986;-41
2023/11/09 11:08:13;;;;;;;;;;;;;;;10.19;100.00;99919.50;5055301;28;19912;-41
2023/11/09 11:10:42;;;;;;;;;;;;;;;10.12;100.00;99900.66;5044114;28;19916;-40
2023/11/09 11:13:09;;;;;;;;;;;;;;;10.11;100.00;99907.09;5022952;28;20290;-41
2023/11/09 11:15:48;;;;;;;;;;;;;;;9.94;100.00;99893.16;5053629;28;19917;-40
2023/11/09 11:18:22;;;;;;;;;;;;;;;9.96;100.00;99885.72;5031658;28;19955;-39
2023/11/09 11:20:51;;;;;;;;;;;;;;;9.93;100.00;99879.94;5037432;28;20291;-41
2023/11/09 11:23:36;;;;;;;;;;;;;;;9.92;100.00;99872.88;5054834;28;19960;-40
2023/11/09 11:26:05;;;;;;;;;;;;;;;10.01;100.00;99874.38;5053737;28;19924;-41
2023/11/09 11:28:31;;;;;;;;;;;;;;;10.08;100.00;99869.84;5037732;28;19920;-41
2023/11/09 11:31:03;;;;;;;;;;;;;;;10.02;100.00;99862.59;5033566;28;19917;-41
2023/11/09 11:33:28;;;;;;;;;;;;;;;10.03;100.00;99858.84;5042447;28;19964;-42
2023/11/09 11:35:56;;;;;;;;;;;;;;;10.11;100.00;99858.69;5048042;28;20002;-42
2023/11/09 11:38:29;;;;;;;;;;;;;;;10.07;100.00;99844.00;5048739;28;19920;-42
2023/11/09 11:40:57;;;;;;;;;;;;;;;10.03;100.00;99853.47;5052411;28;19923;-41
2023/11/09 11:43:22;;;;;;;;;;;;;;;10.09;100.00;99848.13;5053474;28;19925;-41
2023/11/09 11:45:47;;;;;;;;;;;;;;;10.13;100.00;99845.84;5052710;28;19916;-41
2023/11/09 11:48:20;;;;;;;;;;;;;;;10.24;100.00;99833.66;5052961;28;19917;-41
2023/11/09 11:50:46;;;;;;;;;;;;;;;10.36;100.00;99836.63;5035748;28;19917;-41
2023/11/09 11:53:24;;;;;;;;;;;;;;;10.33;100.00;99833.31;5053500;28;20275;-41
2023/11/09 11:56:10;;;;;;;;;;;;;;;10.20;100.00;99822.50;5050554;28;20401;-41
2023/11/09 11:58:41;;;;;;;;;;;;;;;10.24;100.00;99829.16;5041374;28;19917;-41
2023/11/09 12:01:08;;;;;;;;;;;;;;;10.17;100.00;99822.09;5045565;28;20005;-41
2023/11/09 12:03:40;;;;;;;;;;;;;;;10.14;100.00;99825.16;5047198;28;19917;-40
2023/11/09 12:06:07;;;;;;;;;;;;;;;10.15;100.00;99824.16;5034445;28;19913;-39
2023/11/09 12:08:33;;;;;;;;;;;;;;;10.04;100.00;99822.91;5027747;28;19917;-40
2023/11/09 12:11:03;;;;;;;;;;;;;;;10.04;100.00;99829.09;5053210;28;19917;-41
2023/11/09 12:13:35;;;;;;;;;;;;;;;10.08;100.00;99824.13;5049460;28;20353;-41
2023/11/09 12:16:00;;;;;;;;;;;;;;;10.04;100.00;99817.53;5053953;28;19924;-41
2023/11/09 12:18:26;;;;;;;;;;;;;;;10.04;100.00;99836.34;5053841;28;19936;-41
2023/11/09 12:20:52;;;;;;;;;;;;;;;10.07;100.00;99823.31;5053533;28;20006;-42
2023/11/09 12:23:18;;;;;;;;;;;;;;;9.95;100.00;99824.91;5047196;28;19970;-40
2023/11/09 12:25:49;;;;;;;;;;;;;;;9.90;100.00;99832.78;5053635;28;19916;-41
2023/11/09 12:28:15;;;;;;;;;;;;;;;9.93;100.00;99826.19;5052600;28;19921;-41
2023/11/09 12:30:41;;;;;;;;;;;;;;;9.86;100.00;99829.66;5032060;28;19939;-41
2023/11/09 12:33:08;;;;;;;;;;;;;;;9.83;100.00;99827.38;5052435;28;19920;-41
2023/11/09 12:35:33;;;;;;;;;;;;;;;9.87;100.00;99825.97;5052650;28;20003;-41
2023/11/09 12:37:59;;;;;;;;;;;;;;;10.00;100.00;99824.31;5045541;28;20011;-42
2023/11/09 12:40:26;;;;;;;;;;;;;;;9.84;100.00;99823.66;5015944;28;20347;-41
2023/11/09 12:42:51;;;;;;;;;;;;;;;9.92;100.00;99813.75;5038487;28;19978;-41